createdAt,value
2018-06-24T00:03:12.381Z,22.5
2018-06-24T00:08:11.037Z,22.3
2018-06-24T00:13:09.809Z,22.3
2018-06-24T00:18:08.618Z,22.2
2018-06-24T00:23:07.146Z,22.1
2018-06-24T00:28:05.708Z,22.1
2018-06-24T00:33:04.635Z,22.2
2018-06-24T00:38:03.386Z,22
2018-06-24T00:43:02.197Z,21.9
2018-06-24T00:48:00.951Z,21.9
2018-06-24T00:52:59.804Z,22
2018-06-24T00:57:58.563Z,21.9
2018-06-24T01:02:57.399Z,21.7
2018-06-24T01:07:56.145Z,21.7
2018-06-24T01:12:55.051Z,21.7
2018-06-24T01:17:53.626Z,21.6
2018-06-24T01:22:52.360Z,21.5
2018-06-24T01:27:51.136Z,21.5
2018-06-24T01:32:49.927Z,21.4
2018-06-24T01:37:48.905Z,21.4
2018-06-24T01:42:47.595Z,21.3
2018-06-24T01:47:46.533Z,21.4
2018-06-24T01:52:45.187Z,21.1
2018-06-24T01:57:43.605Z,21.1
2018-06-24T02:02:42.089Z,21.1
2018-06-24T02:07:40.737Z,21
2018-06-24T02:12:39.076Z,21
2018-06-24T02:17:37.771Z,20.9
2018-06-24T02:22:36.529Z,20.9
2018-06-24T02:27:35.298Z,20.8
2018-06-24T02:32:34.002Z,20.7
2018-06-24T02:37:32.537Z,20.7
2018-06-24T02:42:31.146Z,20.6
2018-06-24T02:47:30.048Z,20.5
2018-06-24T02:52:28.819Z,20.5
2018-06-24T02:57:27.847Z,20.5
2018-06-24T03:02:26.636Z,20.4
2018-06-24T03:07:25.357Z,20.3
2018-06-24T03:12:23.994Z,20.3
2018-06-24T03:17:22.806Z,20.2
2018-06-24T03:22:21.793Z,20.2
2018-06-24T03:27:20.519Z,20.1
2018-06-24T03:32:19.282Z,20.2
2018-06-24T03:37:17.615Z,20
2018-06-24T03:42:16.570Z,20
2018-06-24T03:47:15.005Z,19.9
2018-06-24T03:52:13.791Z,19.9
2018-06-24T03:57:12.505Z,19.8
2018-06-24T04:02:11.367Z,19.9
2018-06-24T04:07:10.071Z,19.7
2018-06-24T04:12:08.450Z,19.8
2018-06-24T04:17:07.301Z,19.6
2018-06-24T04:22:06.036Z,19.6
2018-06-24T04:27:04.617Z,19.6
2018-06-24T04:32:03.384Z,19.7
2018-06-24T04:37:01.824Z,19.5
2018-06-24T04:42:00.591Z,19.5
2018-06-24T04:46:59.462Z,19.6
2018-06-24T04:51:58.324Z,19.5
2018-06-24T04:56:56.940Z,19.5
2018-06-24T05:01:55.782Z,19.5
2018-06-24T05:06:54.705Z,19.5
2018-06-24T05:11:53.438Z,19.5
2018-06-24T05:16:52.381Z,19.6
2018-06-24T05:21:51.126Z,19.5
2018-06-24T05:26:49.890Z,19.6
2018-06-24T05:31:48.483Z,19.6
2018-06-24T05:36:47.412Z,19.5
2018-06-24T05:41:46.342Z,19.6
2018-06-24T05:46:45.165Z,19.7
2018-06-24T05:51:43.972Z,19.7
2018-06-24T05:56:42.531Z,19.6
2018-06-24T06:01:41.468Z,19.7
2018-06-24T06:06:40.238Z,19.6
2018-06-24T06:11:38.911Z,19.5
2018-06-24T06:16:37.891Z,19.4
2018-06-24T06:21:36.433Z,19.4
2018-06-24T06:26:35.171Z,19.4
2018-06-24T06:31:34.010Z,19.3
2018-06-24T06:36:32.859Z,19.2
2018-06-24T06:41:31.568Z,19.2
2018-06-24T06:46:30.566Z,19.1
2018-06-24T06:51:29.575Z,19.1
2018-06-24T06:56:28.424Z,19.2
2018-06-24T07:01:27.432Z,19.2
2018-06-24T07:06:26.236Z,19
2018-06-24T07:11:24.926Z,19
2018-06-24T07:16:23.459Z,19
2018-06-24T07:21:21.771Z,19
2018-06-24T07:26:20.099Z,19.1
2018-06-24T07:31:18.734Z,18.9
2018-06-24T07:36:17.617Z,19
2018-06-24T07:41:16.151Z,19
2018-06-24T07:46:14.951Z,19.1
2018-06-24T07:51:13.630Z,19
2018-06-24T07:56:12.618Z,19
2018-06-24T08:01:11.570Z,19
2018-06-24T08:06:10.480Z,19
2018-06-24T08:11:09.216Z,19
2018-06-24T08:16:07.905Z,19.1
2018-06-24T08:21:06.785Z,19.1
2018-06-24T08:26:05.662Z,19.1
2018-06-24T08:31:04.562Z,19.1
2018-06-24T08:36:03.557Z,19.2
2018-06-24T08:41:02.519Z,19.4
2018-06-24T08:46:01.364Z,19.4
2018-06-24T08:51:00.118Z,19.3
2018-06-24T08:55:58.913Z,19.4
2018-06-24T09:00:57.655Z,19.6
2018-06-24T09:05:56.568Z,19.5
2018-06-24T09:10:55.681Z,19.5
2018-06-24T09:15:54.774Z,19.7
2018-06-24T09:20:53.859Z,19.6
2018-06-24T09:25:52.851Z,19.8
2018-06-24T09:30:51.604Z,19.7
2018-06-24T09:35:50.677Z,19.8
2018-06-24T09:40:49.287Z,19.8
2018-06-24T09:45:48.013Z,19.8
2018-06-24T09:50:46.792Z,19.9
2018-06-24T09:55:45.459Z,20
2018-06-24T10:00:44.488Z,20.1
2018-06-24T10:05:43.381Z,20.2
2018-06-24T10:10:42.476Z,20.4
2018-06-24T10:15:41.495Z,20.3
2018-06-24T10:20:39.800Z,20.3
2018-06-24T10:25:38.740Z,20.4
2018-06-24T10:30:37.800Z,20.5
2018-06-24T10:35:36.488Z,20.4
2018-06-24T10:40:35.372Z,20.5
2018-06-24T10:45:34.211Z,20.6
2018-06-24T10:50:33.085Z,20.6
2018-06-24T10:55:31.707Z,20.7
2018-06-24T11:00:30.563Z,20.7
2018-06-24T11:05:29.442Z,20.8
2018-06-24T11:10:28.542Z,21
2018-06-24T11:15:27.480Z,21
2018-06-24T11:20:26.455Z,21.3
2018-06-24T11:25:25.238Z,21.3
2018-06-24T11:30:24.373Z,21.4
2018-06-24T11:35:23.347Z,21.5
2018-06-24T11:40:22.404Z,21.6
2018-06-24T11:45:21.271Z,21.7
2018-06-24T11:50:20.405Z,21.9
2018-06-24T11:55:20.168Z,21.8
2018-06-24T12:00:19.096Z,21.9
2018-06-24T12:05:18.285Z,22.1
2018-06-24T12:10:17.112Z,22.1
2018-06-24T12:15:16.042Z,22.1
2018-06-24T12:20:14.991Z,22.1
2018-06-24T12:25:13.748Z,22.2
2018-06-24T12:30:12.826Z,22.3
2018-06-24T12:35:11.873Z,22.3
2018-06-24T12:40:10.778Z,22.5
2018-06-24T12:45:09.684Z,22.4
2018-06-24T12:50:08.467Z,22.5
2018-06-24T12:55:07.473Z,22.5
2018-06-24T13:00:06.824Z,22.6
2018-06-24T13:05:06.695Z,22.7
2018-06-24T13:10:05.572Z,22.8
2018-06-24T13:15:04.393Z,22.7
2018-06-24T13:20:03.056Z,22.8
2018-06-24T13:25:01.881Z,22.8
2018-06-24T13:30:00.358Z,22.8
2018-06-24T13:34:58.943Z,22.9
2018-06-24T13:39:57.586Z,23
2018-06-24T13:44:56.156Z,23
2018-06-24T13:49:54.830Z,23
2018-06-24T13:54:54.144Z,23
2018-06-24T13:59:52.706Z,23
2018-06-24T14:04:51.588Z,23.1
2018-06-24T14:09:50.407Z,23.1
2018-06-24T14:14:49.274Z,23.1
2018-06-24T14:19:48.236Z,23.2
2018-06-24T14:24:47.242Z,23.2
2018-06-24T14:29:46.216Z,23.2
2018-06-24T14:34:45.199Z,23.3
2018-06-24T14:39:44.030Z,23.3
2018-06-24T14:44:43.014Z,23.3
2018-06-24T14:49:42.018Z,23.4
2018-06-24T14:54:40.625Z,23.4
2018-06-24T14:59:39.557Z,23.4
2018-06-24T15:04:38.346Z,23.5
2018-06-24T15:09:37.101Z,23.5
2018-06-24T15:14:36.078Z,23.5
2018-06-24T15:19:35.005Z,23.6
2018-06-24T15:24:34.002Z,23.6
2018-06-24T15:29:32.947Z,23.5
2018-06-24T15:34:32.114Z,23.5
2018-06-24T15:39:31.152Z,23.7
2018-06-24T15:44:29.973Z,23.6
2018-06-24T15:49:29.225Z,23.6
2018-06-24T15:54:28.412Z,23.8
2018-06-24T15:59:27.356Z,23.8
2018-06-24T16:04:26.113Z,23.8
2018-06-24T16:09:25.013Z,23.8
2018-06-24T16:14:23.995Z,23.9
2018-06-24T16:19:23.008Z,23.9
2018-06-24T16:24:21.792Z,23.9
2018-06-24T16:29:20.805Z,23.8
2018-06-24T16:34:19.753Z,23.8
2018-06-24T16:39:18.781Z,23.9
2018-06-24T16:44:17.729Z,23.8
2018-06-24T16:49:16.738Z,23.8
2018-06-24T16:54:15.817Z,24
2018-06-24T16:59:14.687Z,24
2018-06-24T17:04:13.602Z,23.8
2018-06-24T17:09:12.564Z,24
2018-06-24T17:14:11.671Z,24
2018-06-24T17:19:09.951Z,24
2018-06-24T17:24:08.704Z,23.8
2018-06-24T17:29:07.891Z,24
2018-06-24T17:34:06.818Z,24
2018-06-24T17:39:05.443Z,24
2018-06-24T17:44:04.091Z,23.9
2018-06-24T17:49:02.888Z,24
2018-06-24T17:54:01.837Z,24
2018-06-24T17:59:00.264Z,23.8
2018-06-24T18:03:59.220Z,24
2018-06-24T18:08:58.148Z,24
2018-06-24T18:13:57.167Z,23.8
2018-06-24T18:18:56.053Z,23.9
2018-06-24T18:23:55.027Z,23.9
2018-06-24T18:28:53.837Z,23.9
2018-06-24T18:33:52.823Z,23.9
2018-06-24T18:38:51.839Z,23.9
2018-06-24T18:43:50.700Z,23.9
2018-06-24T18:48:49.650Z,23.8
2018-06-24T18:53:48.543Z,23.7
2018-06-24T18:58:47.644Z,23.7
2018-06-24T19:03:46.416Z,23.8
2018-06-24T19:08:45.431Z,23.6
2018-06-24T19:13:44.347Z,23.7
2018-06-24T19:18:43.041Z,23.7
2018-06-24T19:23:42.218Z,23.7
2018-06-24T19:28:41.095Z,23.7
2018-06-24T19:33:39.813Z,23.6
2018-06-24T19:38:38.573Z,23.6
2018-06-24T19:43:37.392Z,23.5
2018-06-24T19:48:36.253Z,23.5
2018-06-24T19:53:34.821Z,23.5
2018-06-24T19:58:33.482Z,23.5
2018-06-24T20:03:32.384Z,23.3
2018-06-24T20:08:31.207Z,23.4
2018-06-24T20:13:30.128Z,23.4
2018-06-24T20:18:29.156Z,23.2
2018-06-24T20:23:28.012Z,23.3
2018-06-24T20:28:27.000Z,23.2
2018-06-24T20:33:26.126Z,23.2
2018-06-24T20:38:24.786Z,23.2
2018-06-24T20:43:23.236Z,23.1
2018-06-24T20:48:21.807Z,23.1
2018-06-24T20:53:20.748Z,22.9
2018-06-24T20:58:19.689Z,22.9
2018-06-24T21:03:18.450Z,22.9
2018-06-24T21:08:17.203Z,22.9
2018-06-24T21:13:15.993Z,22.9
2018-06-24T21:18:14.750Z,22.7
2018-06-24T21:23:13.640Z,22.6
2018-06-24T21:28:12.178Z,22.8
2018-06-24T21:33:10.909Z,22.6
2018-06-24T21:38:09.735Z,22.6
2018-06-24T21:43:08.508Z,22.5
2018-06-24T21:48:07.243Z,22.5
2018-06-24T21:53:05.970Z,22.5
2018-06-24T21:58:04.701Z,22.4
2018-06-24T22:03:03.374Z,22.3
2018-06-24T22:08:02.207Z,22.3
2018-06-24T22:13:00.873Z,22.2
2018-06-24T22:17:59.734Z,22.3
2018-06-24T22:22:58.492Z,22.1
2018-06-24T22:27:57.402Z,22.1
2018-06-24T22:32:55.799Z,22
2018-06-24T22:37:54.577Z,22
2018-06-24T22:42:53.268Z,22
2018-06-24T22:47:52.010Z,21.9
2018-06-24T22:52:50.846Z,21.9
2018-06-24T22:57:49.617Z,21.8
2018-06-24T23:02:48.342Z,21.8
2018-06-24T23:07:46.971Z,21.7
2018-06-24T23:12:45.691Z,21.7
2018-06-24T23:17:44.411Z,21.6
2018-06-24T23:22:43.021Z,21.6
2018-06-24T23:27:41.899Z,21.7
2018-06-24T23:32:40.658Z,21.5
2018-06-24T23:37:39.524Z,21.6
2018-06-24T23:42:38.284Z,21.4
2018-06-24T23:47:37.068Z,21.4
2018-06-24T23:52:35.697Z,21.4
2018-06-24T23:57:34.572Z,21.3
